Nearby METAR Reports

 

KDEN - Denver, Colorado, USA
Distance from station: NE 9mi, 14km
Updated: Thu, 15-Nov-2018 1:53pm MST
Partly cloudy
Partly cloudy
 Wind from ESE
Wind: ESE 10 mph , 17 km/h
Temperature: 57°F , 14°C
Dew Point: 18°F , -8°C
Humidity: 21%
Barometer: 30.12 inHg , 1020 hPa
Clouds: Partly cloudy
Visibility: 10 miles , 16 km
Cloud details: Few Clouds 15000 ft
Partly cloudy 22000 ft
2018/11/15 20:53 KDEN 152053Z 11009KT 10SM FEW150 SCT220 14/M08 A3012 RMK AO2 SLP168 T01441083 56018
KAPA - Centennial Airport, Colorado, USA
Distance from station: N 9mi, 14km
Updated: Thu, 15-Nov-2018 1:53pm MST
Partly cloudy
Partly cloudy
 Wind from E
Wind: E 7 mph , 11 km/h
Temperature: 55°F , 13°C
Dew Point: 19°F , -7°C
Humidity: 24%
Barometer: 30.13 inHg , 1020.3 hPa
Clouds: Partly cloudy
Visibility: 10 miles , 16 km
Cloud details: Few Clouds 14000 ft
Partly cloudy 22000 ft
2018/11/15 20:53 KAPA 152053Z 08006KT 10SM FEW140 SCT220 13/M07 A3013 RMK AO2 SLP190 ACSL DSNT W AND NW T01281072 56016
 
KBJC - Broomfield Airport, Colorado, USA
Distance from station: NNW 14mi, 23km
Updated: Thu, 15-Nov-2018 1:52pm MST
Partly cloudy
Partly cloudy
 Wind from ESE
Wind: ESE 12 mph , 19 km/h
Temperature: 59°F , 15°C
Dew Point: 18°F , -8°C
Humidity: 20%
Barometer: 30.13 inHg , 1020.3 hPa
Clouds: Partly cloudy
Visibility: 50 miles , 80 km
Cloud details: Partly cloudy 22000 ft
2018/11/15 20:52 KBJC 152052Z 11010KT 50SM SCT220 15/M08 A3013